Tishomingo Cnty AP, Belmont,, MS

3:13 AM CDT on August 22, 2017 (GMT -0500)
Tishomingo Cnty AP, Belmont,

Weather History for K01M - February, 2014

Change the Weather History Date:

Tuesday, February 18, 2014

  Actual Average (KTUP) Record (KTUP)
Temperature  
Mean Temperature 51 °F -  
Max Temperature 70 °F 56 °F 79 °F (2000)
Min Temperature 32 °F 35 °F 6 °F (1936)
Degree Days  
Heating Degree Days 14    
Growing Degree Days 1 (Base 50)    
Moisture  
Dew Point 46 °F    
Average Humidity 78    
Maximum Humidity 100    
Minimum Humidity 43    
Precipitation  
Precipitation 0.00 in - - ()
Sea Level Pressure  
Sea Level Pressure 30.08 in    
Wind  
Wind Speed 5 mph (SE)    
Max Wind Speed 14 mph    
Max Gust Speed 21 mph    
Visibility 7 miles    
Events Fog    
Averages and records for this station are not official NWS values.
T = Trace of Precipitation, MM = Missing Value Source: NWS Daily Summary

Daily Weather History Graph

Daily Weather History Graph

Search for Another Location

Airport or City:

Trip Planner

Search our weather history database for the weather conditions in past years. The results will help you decide how hot, cold, wet, or windy it might be!

Date:

Astronomy

Feb. 18, 2014 Rise Set
Actual Time 6:34 AM CST 5:39 PM CST
Civil Twilight 6:09 AM CST 6:04 PM CST
Nautical Twilight 5:39 AM CST 6:34 PM CST
Astronomical Twilight 5:10 AM CST 7:03 PM CST
Moon 9:20 PM CST (2/18) 8:17 AM CST (2/18)
Length of Visible Light 11h 55m
Length of Day
11h 04m
Waning Gibbous, 87% of the Moon is Illuminated
Feb 18
Waning Gibbous
Feb 22
Last Quarter
Mar 1
New
Mar 8
First Quarter
Mar 16
Full

Hourly Weather History & Observations

Time (CST) Temp. Windchill Dew Point Humidity Pressure Visibility Wind Dir Wind Speed Gust Speed Precip Events Conditions
12:15 AM 39.2 °F - 39.2 °F 100% 30.14 in 0.2 mi Calm Calm - N/A Fog Fog
12:35 AM 38.7 °F 35.2 °F 38.5 °F 99% 30.14 in 0.2 mi NE 4.6 mph - N/A Fog Fog
12:50 AM 37.0 °F - 36.9 °F 99% 30.14 in 0.2 mi Calm Calm - N/A Fog Fog
1:15 AM 37.0 °F 34.5 °F 36.9 °F 99% 30.15 in 0.2 mi NE 3.5 mph - N/A Fog Fog
1:35 AM 36.7 °F - 36.5 °F 99% 30.15 in 0.5 mi Calm Calm - N/A Fog Fog
1:55 AM 37.0 °F - 36.9 °F 99% 30.15 in 0.2 mi Calm Calm - N/A Fog Fog
2:15 AM 36.5 °F 33.9 °F 36.3 °F 99% 30.15 in 0.2 mi East 3.5 mph - N/A Fog Fog
2:35 AM 37.2 °F - 37.0 °F 99% 30.15 in 0.2 mi Calm Calm - N/A Fog Fog
2:55 AM 35.6 °F - 35.6 °F 100% 30.15 in 0.2 mi Calm Calm - N/A Fog Fog
3:15 AM 34.3 °F - 34.2 °F 99% 30.15 in 0.2 mi Calm Calm - N/A Fog Fog
3:35 AM 33.8 °F - 33.8 °F 100% 30.15 in 0.2 mi Calm Calm - N/A Fog Fog
3:55 AM 32.9 °F 29.8 °F 32.7 °F 99% 30.14 in 0.2 mi NE 3.5 mph - N/A Fog Fog
4:15 AM 32.0 °F 26.4 °F 31.8 °F 99% 30.14 in 0.5 mi East 5.8 mph - N/A Fog Fog
4:35 AM 35.1 °F 31.0 °F 35.1 °F 100% 30.14 in 2.5 mi East 4.6 mph - N/A   Mist
4:55 AM 34.3 °F 30.2 °F 34.0 °F 99% 30.14 in 2.0 mi East 4.6 mph - N/A   Mist
5:15 AM 33.3 °F 28.9 °F 33.1 °F 99% 30.14 in 2.0 mi East 4.6 mph - N/A   Mist
5:35 AM 34.0 °F 31.0 °F 33.8 °F 99% 30.14 in 2.0 mi East 3.5 mph - N/A   Mist
5:55 AM 34.0 °F 31.0 °F 33.8 °F 99% 30.15 in 1.0 mi East 3.5 mph - N/A   Mist
6:15 AM 33.1 °F 30.0 °F 32.9 °F 99% 30.15 in 0.8 mi East 3.5 mph - N/A   Mist
6:35 AM 33.1 °F 30.0 °F 32.9 °F 99% 30.16 in 0.8 mi East 3.5 mph - N/A   Mist
6:55 AM 34.0 °F 31.0 °F 33.8 °F 99% 30.17 in 3.0 mi East 3.5 mph - N/A   Mist
7:15 AM 36.3 °F 33.7 °F 36.3 °F 100% 30.17 in 5.0 mi East 3.5 mph - N/A   Mist
7:35 AM 39.4 °F 35.2 °F 39.0 °F 99% 30.17 in 10.0 mi East 5.8 mph - N/A   Unknown
7:55 AM 43.0 °F 39.5 °F 39.7 °F 88% 30.17 in 10.0 mi East 5.8 mph - N/A   Unknown
8:15 AM 45.0 °F 42.6 °F 39.7 °F 82% 30.18 in 10.0 mi ESE 4.6 mph - N/A   Unknown
8:35 AM 46.9 °F - 39.2 °F 74% 30.18 in 10.0 mi ESE 5.8 mph - N/A   Unknown
8:55 AM 48.4 °F - 38.3 °F 68% 30.18 in 10.0 mi SE 6.9 mph - N/A   Unknown
9:15 AM 50.4 °F - 37.6 °F 62% 30.18 in 10.0 mi ESE 9.2 mph - N/A   Unknown
9:35 AM 53.2 °F - 38.1 °F 57% 30.18 in 10.0 mi ESE 8.1 mph - N/A   Unknown
9:55 AM 55.0 °F - 39.4 °F 56% 30.18 in 10.0 mi ESE 8.1 mph - N/A   Unknown
10:15 AM 56.8 °F - 39.7 °F 53% 30.17 in 10.0 mi ESE 10.4 mph 16.1 mph N/A   Unknown
10:35 AM 57.9 °F - 40.3 °F 52% 30.17 in 10.0 mi ESE 8.1 mph - N/A   Unknown
10:55 AM 59.9 °F - 41.4 °F 50% 30.16 in 10.0 mi East 8.1 mph - N/A   Unknown
11:15 AM 61.7 °F - 42.1 °F 49% 30.16 in 10.0 mi East 5.8 mph - N/A   Unknown
11:35 AM 63.0 °F - 42.3 °F 47% 30.14 in 10.0 mi East 6.9 mph - N/A   Unknown
11:55 AM 63.0 °F - 42.1 °F 46% 30.13 in 10.0 mi ESE 4.6 mph - N/A   Unknown
12:15 PM 64.4 °F - 42.6 °F 45% 30.11 in 10.0 mi ESE 8.1 mph - N/A   Unknown
12:35 PM 65.5 °F - 43.2 °F 44% 30.10 in 10.0 mi SSW 5.8 mph - N/A   Unknown
12:55 PM 67.1 °F - 44.1 °F 43% 30.09 in 10.0 mi SSE 6.9 mph - N/A   Unknown
1:15 PM 67.3 °F - 45.5 °F 45% 30.08 in 10.0 mi South 10.4 mph 16.1 mph N/A   Unknown
1:35 PM 67.8 °F - 46.4 °F 46% 30.07 in 10.0 mi South 11.5 mph 16.1 mph N/A   Unknown
1:55 PM 69.6 °F - 48.0 °F 46% 30.06 in 10.0 mi South 12.7 mph 17.3 mph N/A   Unknown
2:15 PM 69.3 °F - 48.7 °F 48% 30.05 in 10.0 mi South 10.4 mph - N/A   Unknown
2:35 PM 69.1 °F - 48.7 °F 48% 30.03 in 10.0 mi SSE 6.9 mph - N/A   Unknown
2:55 PM 70.0 °F - 50.0 °F 49% 30.03 in 10.0 mi South 8.1 mph - N/A   Unknown
3:15 PM 68.9 °F - 50.2 °F 51% 30.02 in 10.0 mi South 10.4 mph - N/A   Unknown
3:35 PM 69.4 °F - 51.6 °F 53% 30.01 in 10.0 mi South 8.1 mph - N/A   Unknown
3:55 PM 68.0 °F - 52.7 °F 58% 30.01 in 10.0 mi South 11.5 mph 20.7 mph N/A   Unknown
4:15 PM 67.1 °F - 54.0 °F 63% 30.00 in 10.0 mi South 8.1 mph 17.3 mph N/A   Unknown
4:35 PM 66.2 °F - 53.8 °F 64% 30.00 in 10.0 mi South 9.2 mph 16.1 mph N/A   Unknown
4:55 PM 65.7 °F - 53.6 °F 65% 30.00 in 10.0 mi South 6.9 mph - N/A   Unknown
5:15 PM 65.3 °F - 53.8 °F 66% 29.98 in 10.0 mi South 6.9 mph - N/A   Unknown
5:35 PM 64.6 °F - 55.4 °F 72% 29.99 in 10.0 mi South 11.5 mph 19.6 mph N/A   Unknown
5:55 PM 64.2 °F - 56.1 °F 75% 29.98 in 10.0 mi South 10.4 mph 16.1 mph N/A   Unknown
6:15 PM 63.7 °F - 56.7 °F 78% 29.97 in 10.0 mi South 12.7 mph 16.1 mph N/A   Unknown
6:35 PM 63.5 °F - 57.4 °F 80% 29.97 in 10.0 mi South 12.7 mph 17.3 mph N/A   Unknown
6:55 PM 63.0 °F - 58.1 °F 84% 29.98 in 10.0 mi South 11.5 mph 18.4 mph N/A   Unknown
7:15 PM 62.6 °F - 58.1 °F 85% 29.98 in 10.0 mi SSW 8.1 mph 18.4 mph N/A   Unknown
7:35 PM 62.6 °F - 58.5 °F 86% 29.98 in 10.0 mi South 12.7 mph 18.4 mph N/A   Unknown
7:55 PM 62.1 °F - 59.0 °F 90% 29.97 in 7.0 mi South 10.4 mph 16.1 mph N/A   Unknown
8:15 PM 61.7 °F - 59.0 °F 91% 29.97 in 7.0 mi South 9.2 mph - N/A   Unknown
8:35 PM 61.7 °F - 59.2 °F 91% 29.97 in 7.0 mi South 6.9 mph 17.3 mph N/A   Unknown
8:55 PM 61.7 °F - 59.4 °F 92% 29.98 in 7.0 mi South 10.4 mph 17.3 mph N/A   Unknown
9:15 PM 61.7 °F - 59.4 °F 92% 29.97 in 7.0 mi South 10.4 mph 17.3 mph N/A   Unknown
9:35 PM 61.9 °F - 59.5 °F 92% 29.97 in 7.0 mi South 13.8 mph - N/A   Unknown
9:55 PM 61.9 °F - 59.5 °F 92% 29.97 in 7.0 mi South 9.2 mph 17.3 mph N/A   Unknown
10:15 PM 61.7 °F - 59.4 °F 92% 29.98 in 7.0 mi SSW 8.1 mph - N/A   Unknown
10:35 PM 61.7 °F - 59.2 °F 91% 29.98 in 7.0 mi South 8.1 mph - N/A   Unknown
10:55 PM 61.7 °F - 59.0 °F 91% 29.98 in 7.0 mi SSW 6.9 mph - N/A   Unknown
11:15 PM 61.7 °F - 59.0 °F 91% 29.98 in 7.0 mi SSW 8.1 mph - N/A   Unknown
11:35 PM 61.7 °F - 58.6 °F 90% 29.98 in 10.0 mi South 8.1 mph - N/A   Unknown
11:55 PM 61.9 °F - 58.5 °F 89% 29.98 in 10.0 mi SSW 8.1 mph - N/A   Unknown